createdAt,value
2023-03-28T00:00:46.078Z,999.30
2023-03-28T00:01:46.099Z,999.31
2023-03-28T00:02:46.644Z,999.31
2023-03-28T00:03:46.114Z,999.29
2023-03-28T00:04:46.041Z,999.31
2023-03-28T00:05:46.042Z,999.33
2023-03-28T00:06:46.040Z,999.32
2023-03-28T00:07:46.038Z,999.32
2023-03-28T00:08:46.637Z,999.35
2023-03-28T00:09:46.008Z,999.36
2023-03-28T00:10:46.007Z,999.38
2023-03-28T00:11:46.016Z,999.33
2023-03-28T00:12:45.978Z,999.38
2023-03-28T00:13:45.979Z,999.41
2023-03-28T00:14:45.994Z,999.35
2023-03-28T00:15:45.985Z,999.35
2023-03-28T00:16:45.950Z,999.38
2023-03-28T00:17:45.990Z,999.43
2023-03-28T00:18:45.933Z,999.38
2023-03-28T00:19:45.993Z,999.41
2023-03-28T00:20:45.925Z,999.37
2023-03-28T00:21:45.915Z,999.42
2023-03-28T00:23:45.766Z,999.46
2023-03-28T00:24:45.739Z,999.45
2023-03-28T00:25:45.741Z,999.47
2023-03-28T00:26:46.826Z,999.47
2023-03-28T00:27:46.835Z,999.42
2023-03-28T00:28:46.795Z,999.40
2023-03-28T00:29:46.802Z,999.42
2023-03-28T00:30:46.798Z,999.45
2023-03-28T00:31:46.841Z,999.48
2023-03-28T00:32:46.798Z,999.46
2023-03-28T00:33:46.768Z,999.50
2023-03-28T00:34:46.755Z,999.52
2023-03-28T00:35:46.798Z,999.43
2023-03-28T00:36:46.779Z,999.41
2023-03-28T00:37:46.750Z,999.40
2023-03-28T00:38:46.722Z,999.42
2023-03-28T00:39:46.717Z,999.46
2023-03-28T00:40:46.711Z,999.50
2023-03-28T00:41:46.713Z,999.53
2023-03-28T00:42:46.699Z,999.51
2023-03-28T00:43:46.694Z,999.48
2023-03-28T00:44:46.690Z,999.51
2023-03-28T00:45:56.121Z,999.49
2023-03-28T00:46:48.686Z,999.52
2023-03-28T00:47:46.771Z,999.49
2023-03-28T00:48:46.717Z,999.52
2023-03-28T00:49:46.645Z,999.50
2023-03-28T00:50:47.094Z,999.49
2023-03-28T00:51:46.863Z,999.54
2023-03-28T00:52:46.897Z,999.51
2023-03-28T00:53:46.904Z,999.59
2023-03-28T00:54:46.871Z,999.54
2023-03-28T00:55:46.591Z,999.52
2023-03-28T00:56:46.619Z,999.51
2023-03-28T00:57:46.601Z,999.54
2023-03-28T00:58:46.576Z,999.52
2023-03-28T00:59:46.569Z,999.53
2023-03-28T01:00:46.543Z,999.49
2023-03-28T01:01:46.591Z,999.54
2023-03-28T01:02:46.567Z,999.50
2023-03-28T01:03:46.767Z,999.52
2023-03-28T01:04:46.511Z,999.54
2023-03-28T01:05:46.513Z,999.50
2023-03-28T01:06:46.521Z,999.59
2023-03-28T01:07:46.510Z,999.57
2023-03-28T01:08:46.471Z,999.59
2023-03-28T01:09:46.481Z,999.61
2023-03-28T01:10:46.468Z,999.66
2023-03-28T01:11:46.477Z,999.57
2023-03-28T01:12:46.457Z,999.59
2023-03-28T01:13:46.462Z,999.60
2023-03-28T01:14:46.439Z,999.65
2023-03-28T01:15:46.450Z,999.57
2023-03-28T01:16:47.103Z,999.64
2023-03-28T01:17:46.594Z,999.61
2023-03-28T01:18:46.407Z,999.64
2023-03-28T01:19:46.399Z,999.70
2023-03-28T01:20:46.391Z,999.64
2023-03-28T01:21:46.378Z,999.60
2023-03-28T01:22:57.167Z,999.74
2023-03-28T01:23:47.376Z,999.71
2023-03-28T01:24:46.353Z,999.72
2023-03-28T01:25:46.337Z,999.72
2023-03-28T01:26:46.351Z,999.77
2023-03-28T01:27:46.342Z,999.76
2023-03-28T01:28:46.330Z,999.81
2023-03-28T01:29:46.315Z,999.79
2023-03-28T01:30:46.307Z,999.79
2023-03-28T01:31:46.428Z,999.82
2023-03-28T01:32:47.122Z,999.78
2023-03-28T01:33:46.279Z,999.83
2023-03-28T01:34:46.308Z,999.76
2023-03-28T01:35:46.302Z,999.76
2023-03-28T01:36:46.253Z,999.78
2023-03-28T01:37:46.245Z,999.79
2023-03-28T01:38:46.248Z,999.76
2023-03-28T01:39:46.265Z,999.71
2023-03-28T01:40:46.277Z,999.71
2023-03-28T01:41:46.243Z,999.68
2023-03-28T01:42:46.223Z,999.70
2023-03-28T01:43:46.234Z,999.68
2023-03-28T01:44:46.218Z,999.64
2023-03-28T01:45:46.215Z,999.70
2023-03-28T01:46:46.209Z,999.65
2023-03-28T01:47:46.236Z,999.64
2023-03-28T01:48:46.166Z,999.67
2023-03-28T01:49:47.171Z,999.68
2023-03-28T01:50:46.157Z,999.66
2023-03-28T01:51:46.187Z,999.67
2023-03-28T01:52:46.140Z,999.70
2023-03-28T01:53:46.144Z,999.66
2023-03-28T01:54:46.128Z,999.65
2023-03-28T01:55:46.127Z,999.64
2023-03-28T01:56:46.166Z,999.58
2023-03-28T01:57:46.331Z,999.64
2023-03-28T01:58:46.099Z,999.63
2023-03-28T01:59:46.112Z,999.65
2023-03-28T02:00:46.150Z,999.68
2023-03-28T02:01:46.096Z,999.62
2023-03-28T02:02:46.144Z,999.64
2023-03-28T02:03:46.059Z,999.64
2023-03-28T02:04:46.063Z,999.58
2023-03-28T02:05:46.048Z,999.65
2023-03-28T02:06:46.047Z,999.65
2023-03-28T02:07:46.028Z,999.59
2023-03-28T02:08:46.026Z,999.64
2023-03-28T02:09:46.018Z,999.70
2023-03-28T02:10:46.022Z,999.67
2023-03-28T02:11:46.004Z,999.63
2023-03-28T02:12:45.998Z,999.71
2023-03-28T02:13:45.992Z,999.73
2023-03-28T02:14:45.998Z,999.70
2023-03-28T02:15:45.977Z,999.73
2023-03-28T02:16:46.020Z,999.70
2023-03-28T02:17:45.986Z,999.71
2023-03-28T02:18:45.949Z,999.73
2023-03-28T02:19:45.958Z,999.69
2023-03-28T02:20:45.940Z,999.73
2023-03-28T02:21:45.925Z,999.74
2023-03-28T02:22:45.935Z,999.72
2023-03-28T02:23:45.912Z,999.78
2023-03-28T02:24:45.903Z,999.79
2023-03-28T02:25:45.892Z,999.82
2023-03-28T02:26:47.781Z,999.76
2023-03-28T02:27:45.887Z,999.80
2023-03-28T02:28:45.862Z,999.82
2023-03-28T02:29:45.866Z,999.80
2023-03-28T02:30:45.865Z,999.87
2023-03-28T02:31:45.852Z,999.78
2023-03-28T02:32:45.862Z,999.83
2023-03-28T02:33:45.838Z,999.81
2023-03-28T02:34:45.824Z,999.81
2023-03-28T02:35:45.831Z,999.83
2023-03-28T02:36:45.812Z,999.82
2023-03-28T02:37:45.810Z,999.80
2023-03-28T02:38:45.795Z,999.78
2023-03-28T02:39:45.783Z,999.78
2023-03-28T02:40:45.817Z,999.79
2023-03-28T02:41:45.779Z,999.80
2023-03-28T02:42:45.776Z,999.79
2023-03-28T02:43:45.753Z,999.83
2023-03-28T02:44:45.780Z,999.84
2023-03-28T02:45:45.779Z,999.81
2023-03-28T02:46:45.760Z,999.86
2023-03-28T02:47:45.751Z,999.83
2023-03-28T02:48:45.710Z,999.87
2023-03-28T02:49:50.565Z,999.86
2023-03-28T02:50:47.705Z,999.85
2023-03-28T02:51:45.704Z,999.85
2023-03-28T02:52:45.685Z,999.86
2023-03-28T02:53:45.673Z,999.83
2023-03-28T02:54:45.675Z,999.86
2023-03-28T02:55:45.657Z,999.78
2023-03-28T02:56:45.686Z,999.87
2023-03-28T02:57:45.640Z,999.85
2023-03-28T02:58:45.648Z,999.87
2023-03-28T02:59:45.620Z,999.85
2023-03-28T03:00:45.628Z,999.81
2023-03-28T03:01:45.681Z,999.82
2023-03-28T03:02:45.630Z,999.86
2023-03-28T03:03:45.645Z,999.90
2023-03-28T03:04:45.609Z,999.93
2023-03-28T03:05:45.585Z,999.87
2023-03-28T03:06:45.578Z,999.88
2023-03-28T03:07:45.553Z,999.87
2023-03-28T03:08:45.570Z,999.88
2023-03-28T03:09:45.961Z,999.90
2023-03-28T03:10:46.549Z,999.87
2023-03-28T03:11:45.521Z,999.89
2023-03-28T03:12:45.532Z,999.91
2023-03-28T03:13:45.529Z,999.82
2023-03-28T03:14:45.505Z,999.96
2023-03-28T03:15:45.534Z,999.97
2023-03-28T03:16:45.483Z,999.99
2023-03-28T03:17:45.540Z,999.98
2023-03-28T03:18:45.494Z,999.91
2023-03-28T03:19:45.479Z,999.92
2023-03-28T03:20:45.480Z,999.98
2023-03-28T03:21:45.456Z,999.97
2023-03-28T03:22:45.436Z,1000.00
2023-03-28T03:23:45.443Z,999.97
2023-03-28T03:24:45.433Z,999.92
2023-03-28T03:25:45.450Z,999.91
2023-03-28T03:26:45.416Z,999.90
2023-03-28T03:27:45.416Z,999.94
2023-03-28T03:28:45.391Z,999.94
2023-03-28T03:29:45.407Z,999.95
2023-03-28T03:30:45.381Z,999.96
2023-03-28T03:31:45.441Z,1000.01
2023-03-28T03:32:45.437Z,999.99
2023-03-28T03:33:45.359Z,999.91
2023-03-28T03:34:45.357Z,999.99
2023-03-28T03:35:45.373Z,999.96
2023-03-28T03:36:45.320Z,999.98
2023-03-28T03:37:45.330Z,999.98
2023-03-28T03:38:45.314Z,1000.03
2023-03-28T03:39:46.312Z,1000.00
2023-03-28T03:40:45.299Z,999.96
2023-03-28T03:41:45.297Z,999.97
2023-03-28T03:42:45.285Z,1000.02
2023-03-28T03:43:47.145Z,1000.05
2023-03-28T03:44:47.124Z,1000.05
2023-03-28T03:45:45.290Z,1000.00
2023-03-28T03:46:45.294Z,1000.00
2023-03-28T03:47:45.298Z,999.99
2023-03-28T03:48:49.508Z,999.97
2023-03-28T03:49:46.236Z,999.98
2023-03-28T03:50:45.219Z,999.93
2023-03-28T03:51:45.210Z,999.97
2023-03-28T03:52:45.194Z,1000.00
2023-03-28T03:53:46.197Z,1000.06
2023-03-28T03:54:45.206Z,1000.06
2023-03-28T03:55:45.178Z,1000.04
2023-03-28T03:56:45.236Z,1000.01
2023-03-28T03:57:45.167Z,1000.06
2023-03-28T03:58:45.163Z,1000.01
2023-03-28T03:59:45.158Z,1000.06
2023-03-28T04:00:45.143Z,1000.08
2023-03-28T04:01:45.233Z,1000.04
2023-03-28T04:02:45.183Z,1000.08
2023-03-28T04:03:45.120Z,1000.07
2023-03-28T04:04:45.110Z,1000.02
2023-03-28T04:05:45.134Z,1000.06
2023-03-28T04:06:45.095Z,1000.04
2023-03-28T04:07:45.081Z,1000.07
2023-03-28T04:08:45.085Z,1000.09
2023-03-28T04:09:45.115Z,1000.06
2023-03-28T04:10:46.849Z,1000.07
2023-03-28T04:11:46.047Z,1000.02
2023-03-28T04:12:45.624Z,1000.04
2023-03-28T04:13:45.044Z,1000.04
2023-03-28T04:14:45.031Z,1000.03
2023-03-28T04:15:45.061Z,1000.05
2023-03-28T04:16:45.190Z,1000.04
2023-03-28T04:17:45.019Z,1000.05
2023-03-28T04:18:44.997Z,1000.03
2023-03-28T04:19:44.984Z,1000.05
2023-03-28T04:20:44.992Z,1000.13
2023-03-28T04:21:44.973Z,1000.10
2023-03-28T04:22:45.133Z,1000.08
2023-03-28T04:23:44.943Z,1000.13
2023-03-28T04:24:44.944Z,1000.09
2023-03-28T04:25:44.935Z,1000.06
2023-03-28T04:26:44.932Z,1000.10
2023-03-28T04:27:45.920Z,1000.13
2023-03-28T04:28:44.902Z,1000.20
2023-03-28T04:29:44.910Z,1000.26
2023-03-28T04:30:44.888Z,1000.27
2023-03-28T04:31:44.963Z,1000.22
2023-03-28T04:32:44.962Z,1000.23
2023-03-28T04:33:44.873Z,1000.20
2023-03-28T04:34:44.868Z,1000.20
2023-03-28T04:35:44.879Z,1000.24
2023-03-28T04:36:44.932Z,1000.20
2023-03-28T04:37:44.865Z,1000.22
2023-03-28T04:38:44.843Z,1000.29
2023-03-28T04:39:44.839Z,1000.26
2023-03-28T04:40:44.821Z,1000.26
2023-03-28T04:41:44.830Z,1000.30
2023-03-28T04:42:44.808Z,1000.24
2023-03-28T04:43:44.801Z,1000.30
2023-03-28T04:44:44.800Z,1000.30
2023-03-28T04:45:44.830Z,1000.29
2023-03-28T04:46:44.811Z,1000.28
2023-03-28T04:47:44.855Z,1000.34
2023-03-28T04:48:44.751Z,1000.33
2023-03-28T04:49:44.842Z,1000.34
2023-03-28T04:50:45.763Z,1000.32
2023-03-28T04:51:44.768Z,1000.37
2023-03-28T04:52:44.757Z,1000.34
2023-03-28T04:53:44.733Z,1000.39
2023-03-28T04:54:44.715Z,1000.38
2023-03-28T04:55:44.708Z,1000.37
2023-03-28T04:56:44.710Z,1000.46
2023-03-28T04:57:44.721Z,1000.43
2023-03-28T04:58:44.705Z,1000.45
2023-03-28T04:59:44.703Z,1000.50
2023-03-28T05:00:44.673Z,1000.47
2023-03-28T05:01:44.714Z,1000.44
2023-03-28T05:02:44.800Z,1000.49
2023-03-28T05:03:44.703Z,1000.54
2023-03-28T05:04:44.663Z,1000.51
2023-03-28T05:05:44.630Z,1000.50
2023-03-28T05:06:44.649Z,1000.59
2023-03-28T05:07:44.630Z,1000.52
2023-03-28T05:08:44.605Z,1000.58
2023-03-28T05:09:44.604Z,1000.53
2023-03-28T05:10:44.578Z,1000.57
2023-03-28T05:11:44.586Z,1000.65
2023-03-28T05:12:44.575Z,1000.68
2023-03-28T05:13:44.597Z,1000.68
2023-03-28T05:14:44.580Z,1000.72
2023-03-28T05:15:44.559Z,1000.69
2023-03-28T05:16:44.588Z,1000.70
2023-03-28T05:17:44.558Z,1000.68
2023-03-28T05:18:44.526Z,1000.73
2023-03-28T05:19:44.515Z,1000.73
2023-03-28T05:20:44.521Z,1000.74
2023-03-28T05:21:44.519Z,1000.74
2023-03-28T05:22:44.487Z,1000.79
2023-03-28T05:23:51.520Z,1000.86
2023-03-28T05:24:45.479Z,1000.86
2023-03-28T05:25:44.468Z,1000.87
2023-03-28T05:26:44.451Z,1000.87
2023-03-28T05:27:44.456Z,1000.82
2023-03-28T05:28:45.218Z,1000.82
2023-03-28T05:29:44.445Z,1000.88
2023-03-28T05:30:44.498Z,1000.87
2023-03-28T05:31:44.435Z,1000.92
2023-03-28T05:32:44.447Z,1000.92
2023-03-28T05:33:44.421Z,1000.97
2023-03-28T05:34:44.399Z,1000.97
2023-03-28T05:35:44.775Z,1000.99
2023-03-28T05:36:44.385Z,1000.96
2023-03-28T05:37:46.778Z,1001.02
2023-03-28T05:38:44.448Z,1001.03
2023-03-28T05:39:44.370Z,1001.03
2023-03-28T05:40:44.416Z,1001.01
2023-03-28T05:41:44.340Z,1001.08
2023-03-28T05:42:44.377Z,1001.08
2023-03-28T05:43:44.328Z,1001.05
2023-03-28T05:44:44.331Z,1001.12
2023-03-28T05:45:44.334Z,1001.06
2023-03-28T05:46:44.296Z,1001.09
2023-03-28T05:47:44.351Z,1001.10
2023-03-28T05:48:44.290Z,1001.19
2023-03-28T05:49:45.327Z,1001.20
2023-03-28T05:50:44.275Z,1001.22
2023-03-28T05:51:44.310Z,1001.26
2023-03-28T05:52:44.284Z,1001.22
2023-03-28T05:53:44.257Z,1001.22
2023-03-28T05:54:50.334Z,1001.31
2023-03-28T05:55:45.222Z,1001.37
2023-03-28T05:56:44.292Z,1001.28
2023-03-28T05:57:44.249Z,1001.32
2023-03-28T05:58:44.247Z,1001.29
2023-03-28T05:59:44.205Z,1001.30
2023-03-28T06:00:44.211Z,1001.35
2023-03-28T06:01:44.194Z,1001.39
2023-03-28T06:02:44.227Z,1001.40
2023-03-28T06:03:44.222Z,1001.34
2023-03-28T06:04:44.230Z,1001.48
2023-03-28T06:05:44.736Z,1001.45
2023-03-28T06:06:44.147Z,1001.46
2023-03-28T06:07:44.147Z,1001.41
2023-03-28T06:08:44.173Z,1001.52
2023-03-28T06:09:44.144Z,1001.58
2023-03-28T06:10:44.142Z,1001.46
2023-03-28T06:11:44.747Z,1001.50
2023-03-28T06:12:44.103Z,1001.53
2023-03-28T06:13:44.104Z,1001.46
2023-03-28T06:14:44.075Z,1001.53
2023-03-28T06:15:44.070Z,1001.53
2023-03-28T06:16:44.088Z,1001.51
2023-03-28T06:17:44.087Z,1001.57
2023-03-28T06:18:44.116Z,1001.61
2023-03-28T06:19:44.085Z,1001.63
2023-03-28T06:20:44.049Z,1001.59
2023-03-28T06:21:44.018Z,1001.60
2023-03-28T06:22:44.011Z,1001.59
2023-03-28T06:23:44.019Z,1001.65
2023-03-28T06:24:44.005Z,1001.66
2023-03-28T06:25:44.009Z,1001.64
2023-03-28T06:26:45.006Z,1001.56
2023-03-28T06:27:44.755Z,1001.63
2023-03-28T06:28:43.976Z,1001.66
2023-03-28T06:29:43.952Z,1001.66
2023-03-28T06:30:43.957Z,1001.78
2023-03-28T06:31:44.036Z,1001.76
2023-03-28T06:32:44.000Z,1001.74
2023-03-28T06:33:43.927Z,1001.77
2023-03-28T06:34:43.931Z,1001.77
2023-03-28T06:35:44.023Z,1001.80
2023-03-28T06:36:43.909Z,1001.82
2023-03-28T06:37:43.931Z,1001.80
2023-03-28T06:38:43.966Z,1001.86
2023-03-28T06:39:44.244Z,1001.82
2023-03-28T06:40:43.910Z,1001.83
2023-03-28T06:41:43.901Z,1001.82
2023-03-28T06:42:43.942Z,1001.93
2023-03-28T06:43:43.859Z,1001.98
2023-03-28T06:44:43.858Z,1002.03
2023-03-28T06:45:43.837Z,1001.96
2023-03-28T06:46:44.330Z,1001.99
2023-03-28T06:47:43.898Z,1002.03
2023-03-28T06:48:43.848Z,1001.95
2023-03-28T06:49:43.876Z,1002.02
2023-03-28T06:50:44.645Z,1002.06
2023-03-28T06:51:43.802Z,1002.14
2023-03-28T06:52:43.812Z,1002.06
2023-03-28T06:53:44.296Z,1002.10
2023-03-28T06:54:46.015Z,1002.08
2023-03-28T06:55:43.762Z,1002.03
2023-03-28T06:56:43.784Z,1002.05
2023-03-28T06:57:43.750Z,1002.02
2023-03-28T06:58:43.737Z,1002.03
2023-03-28T06:59:43.744Z,1002.07
2023-03-28T07:01:50.891Z,1002.05
2023-03-28T07:02:51.026Z,1002.09
2023-03-28T07:03:52.441Z,1002.15
2023-03-28T07:04:52.371Z,1002.12
2023-03-28T07:05:50.853Z,1002.17
2023-03-28T07:06:50.833Z,1002.15
2023-03-28T07:07:50.847Z,1002.19
2023-03-28T07:08:50.852Z,1002.14
2023-03-28T07:09:50.813Z,1002.13
2023-03-28T07:10:50.810Z,1002.14
2023-03-28T07:11:50.797Z,1002.15
2023-03-28T07:12:50.796Z,1002.10
2023-03-28T07:13:51.422Z,1002.14
2023-03-28T07:14:50.801Z,1002.14
2023-03-28T07:15:50.780Z,1002.13
2023-03-28T07:16:50.776Z,1002.20
2023-03-28T07:17:50.780Z,1002.13
2023-03-28T07:18:50.756Z,1002.17
2023-03-28T07:19:50.750Z,1002.21
2023-03-28T07:21:01.514Z,1002.19
2023-03-28T07:21:51.759Z,1002.19
2023-03-28T07:22:50.741Z,1002.18
2023-03-28T07:23:50.757Z,1002.22
2023-03-28T07:24:50.712Z,1002.19
2023-03-28T07:25:50.685Z,1002.24
2023-03-28T07:26:52.075Z,1002.23
2023-03-28T07:27:51.685Z,1002.30
2023-03-28T07:28:50.679Z,1002.33
2023-03-28T07:29:50.672Z,1002.34
2023-03-28T07:30:50.671Z,1002.42
2023-03-28T07:31:50.658Z,1002.37
2023-03-28T07:32:59.793Z,1002.34
2023-03-28T07:33:51.659Z,1002.34
2023-03-28T07:34:51.426Z,1002.36
2023-03-28T07:35:50.681Z,1002.39
2023-03-28T07:36:50.619Z,1002.42
2023-03-28T07:37:50.618Z,1002.42
2023-03-28T07:38:50.588Z,1002.49
2023-03-28T07:39:50.578Z,1002.46
2023-03-28T07:40:50.595Z,1002.44
2023-03-28T07:41:50.966Z,1002.53
2023-03-28T07:42:50.592Z,1002.48
2023-03-28T07:43:50.578Z,1002.49
2023-03-28T07:44:50.568Z,1002.53
2023-03-28T07:45:50.537Z,1002.46
2023-03-28T07:46:50.518Z,1002.46
2023-03-28T07:47:50.554Z,1002.46
2023-03-28T07:48:51.597Z,1002.52
2023-03-28T07:49:52.635Z,1002.46
2023-03-28T07:50:51.585Z,1002.53
2023-03-28T07:51:51.686Z,1002.48
2023-03-28T07:52:51.588Z,1002.44
2023-03-28T07:53:51.569Z,1002.47
2023-03-28T07:54:51.579Z,1002.48
2023-03-28T07:55:54.955Z,1002.48
2023-03-28T07:56:52.659Z,1002.54
2023-03-28T07:57:51.598Z,1002.48
2023-03-28T07:58:51.529Z,1002.48
2023-03-28T07:59:51.537Z,1002.48
2023-03-28T08:00:52.564Z,1002.46
2023-03-28T08:01:51.513Z,1002.46
2023-03-28T08:02:51.551Z,1002.51
2023-03-28T08:03:51.635Z,1002.49
2023-03-28T08:04:51.504Z,1002.51
2023-03-28T08:05:51.706Z,1002.54
2023-03-28T08:06:51.464Z,1002.52
2023-03-28T08:07:51.456Z,1002.50
2023-03-28T08:08:51.466Z,1002.53
2023-03-28T08:09:51.443Z,1002.53
2023-03-28T08:10:51.697Z,1002.44
2023-03-28T08:11:52.060Z,1002.55
2023-03-28T08:12:51.437Z,1002.63
2023-03-28T08:13:51.445Z,1002.63
2023-03-28T08:14:51.427Z,1002.59
2023-03-28T08:15:53.003Z,1002.57
2023-03-28T08:16:51.405Z,1002.59
2023-03-28T08:17:51.454Z,1002.62
2023-03-28T08:19:03.545Z,1002.65
2023-03-28T08:19:53.385Z,1002.54
2023-03-28T08:20:51.363Z,1002.63
2023-03-28T08:21:51.341Z,1002.63
2023-03-28T08:22:51.958Z,1002.61
2023-03-28T08:23:51.373Z,1002.67
2023-03-28T08:24:51.328Z,1002.60
2023-03-28T08:25:51.332Z,1002.60
2023-03-28T08:26:51.293Z,1002.65
2023-03-28T08:27:51.324Z,1002.62
2023-03-28T08:28:51.288Z,1002.65
2023-03-28T08:29:51.290Z,1002.71
2023-03-28T08:30:51.324Z,1002.70
2023-03-28T08:31:51.628Z,1002.61
2023-03-28T08:32:51.346Z,1002.59
2023-03-28T08:33:51.272Z,1002.68
2023-03-28T08:34:51.279Z,1002.65
2023-03-28T08:35:51.261Z,1002.58
2023-03-28T08:36:51.224Z,1002.55
2023-03-28T08:37:51.235Z,1002.68
2023-03-28T08:38:51.210Z,1002.64
2023-03-28T08:39:51.213Z,1002.71
2023-03-28T08:40:51.234Z,1002.68
2023-03-28T08:41:51.198Z,1002.66
2023-03-28T08:42:51.177Z,1002.67
2023-03-28T08:43:51.184Z,1002.60
2023-03-28T08:44:52.081Z,1002.61
2023-03-28T08:45:51.163Z,1002.61
2023-03-28T08:46:51.229Z,1002.59
2023-03-28T08:47:51.182Z,1002.62
2023-03-28T08:48:51.125Z,1002.67
2023-03-28T08:49:51.190Z,1002.67
2023-03-28T08:50:51.148Z,1002.67
2023-03-28T08:51:51.120Z,1002.66
2023-03-28T08:52:51.152Z,1002.70
2023-03-28T08:53:51.096Z,1002.73
2023-03-28T08:54:52.034Z,1002.74
2023-03-28T08:55:53.535Z,1002.73
2023-03-28T08:56:52.118Z,1002.75
2023-03-28T08:57:51.070Z,1002.73
2023-03-28T08:58:51.064Z,1002.65
2023-03-28T08:59:51.058Z,1002.70
2023-03-28T09:00:52.576Z,1002.74
2023-03-28T09:01:51.245Z,1002.77
2023-03-28T09:02:52.355Z,1002.73
2023-03-28T09:03:52.069Z,1002.77
2023-03-28T09:04:51.013Z,1002.73
2023-03-28T09:05:51.017Z,1002.76
2023-03-28T09:06:50.992Z,1002.82
2023-03-28T09:07:50.986Z,1002.83
2023-03-28T09:08:50.999Z,1002.84
2023-03-28T09:09:51.012Z,1002.83
2023-03-28T09:10:50.990Z,1002.79
2023-03-28T09:11:50.969Z,1002.78
2023-03-28T09:12:51.458Z,1002.77
2023-03-28T09:13:50.938Z,1002.80
2023-03-28T09:14:52.356Z,1002.82
2023-03-28T09:15:52.602Z,1002.85
2023-03-28T09:16:51.185Z,1002.85
2023-03-28T09:17:50.964Z,1002.81
2023-03-28T09:18:50.907Z,1002.82
2023-03-28T09:19:50.896Z,1002.80
2023-03-28T09:20:50.884Z,1002.81
2023-03-28T09:21:51.011Z,1002.84
2023-03-28T09:22:50.866Z,1002.82
2023-03-28T09:23:52.057Z,1002.79
2023-03-28T09:24:50.858Z,1002.81
2023-03-28T09:25:50.847Z,1002.81
2023-03-28T09:26:50.858Z,1002.83
2023-03-28T09:27:50.837Z,1002.84
2023-03-28T09:28:51.215Z,1002.86
2023-03-28T09:29:50.822Z,1002.84
2023-03-28T09:30:50.807Z,1002.87
2023-03-28T09:31:51.617Z,1002.84
2023-03-28T09:32:50.808Z,1002.84
2023-03-28T09:33:50.799Z,1002.78
2023-03-28T09:34:50.800Z,1002.70
2023-03-28T09:35:50.788Z,1002.77
2023-03-28T09:36:51.823Z,1002.78
2023-03-28T09:37:50.778Z,1002.79
2023-03-28T09:38:50.889Z,1002.79
2023-03-28T09:39:50.992Z,1002.78
2023-03-28T09:40:50.819Z,1002.77
2023-03-28T09:41:50.715Z,1002.74
2023-03-28T09:42:50.721Z,1002.69
2023-03-28T09:43:50.707Z,1002.76
2023-03-28T09:44:54.596Z,1002.78
2023-03-28T09:45:51.784Z,1002.81
2023-03-28T09:46:50.723Z,1002.81
2023-03-28T09:47:51.501Z,1002.77
2023-03-28T09:48:50.901Z,1002.83
2023-03-28T09:49:56.422Z,1002.78
2023-03-28T09:50:53.090Z,1002.73
2023-03-28T09:51:50.648Z,1002.76
2023-03-28T09:52:51.429Z,1002.70
2023-03-28T09:53:50.618Z,1002.74
2023-03-28T09:54:50.626Z,1002.72
2023-03-28T09:56:03.285Z,1002.70
2023-03-28T09:56:52.645Z,1002.72
2023-03-28T09:57:50.598Z,1002.75
2023-03-28T09:58:51.460Z,1002.71
2023-03-28T09:59:51.565Z,1002.69
2023-03-28T10:00:52.519Z,1002.76
2023-03-28T10:01:50.678Z,1002.67
2023-03-28T10:02:50.628Z,1002.76
2023-03-28T10:03:51.471Z,1002.69
2023-03-28T10:04:50.581Z,1002.78
2023-03-28T10:05:50.531Z,1002.70
2023-03-28T10:06:50.555Z,1002.72
2023-03-28T10:07:50.540Z,1002.65
2023-03-28T10:08:50.531Z,1002.71
2023-03-28T10:09:50.518Z,1002.71
2023-03-28T10:10:52.523Z,1002.65
2023-03-28T10:11:50.510Z,1002.67
2023-03-28T10:12:50.494Z,1002.65
2023-03-28T10:13:50.470Z,1002.65
2023-03-28T10:14:50.519Z,1002.69
2023-03-28T10:15:50.578Z,1002.70
2023-03-28T10:16:50.448Z,1002.68
2023-03-28T10:17:50.511Z,1002.67
2023-03-28T10:18:50.982Z,1002.61
2023-03-28T10:19:50.448Z,1002.60
2023-03-28T10:20:50.410Z,1002.61
2023-03-28T10:21:50.469Z,1002.57
2023-03-28T10:22:50.385Z,1002.58
2023-03-28T10:23:50.447Z,1002.58
2023-03-28T10:24:50.379Z,1002.55
2023-03-28T10:25:50.403Z,1002.57
2023-03-28T10:26:50.495Z,1002.57
2023-03-28T10:27:50.371Z,1002.56
2023-03-28T10:28:50.405Z,1002.53
2023-03-28T10:29:50.396Z,1002.55
2023-03-28T10:30:50.367Z,1002.59
2023-03-28T10:31:50.350Z,1002.58
2023-03-28T10:32:50.338Z,1002.58
2023-03-28T10:33:50.297Z,1002.56
2023-03-28T10:34:50.315Z,1002.57
2023-03-28T10:35:50.316Z,1002.54
2023-03-28T10:36:50.338Z,1002.52
2023-03-28T10:37:50.332Z,1002.55
2023-03-28T10:38:50.278Z,1002.56
2023-03-28T10:39:50.265Z,1002.58
2023-03-28T10:40:50.279Z,1002.50
2023-03-28T10:41:50.269Z,1002.54
2023-03-28T10:42:50.241Z,1002.50
2023-03-28T10:43:50.572Z,1002.48
2023-03-28T10:44:50.253Z,1002.47
2023-03-28T10:45:50.249Z,1002.47
2023-03-28T10:46:51.229Z,1002.47
2023-03-28T10:47:52.006Z,1002.45
2023-03-28T10:48:50.192Z,1002.52
2023-03-28T10:49:50.179Z,1002.43
2023-03-28T10:50:50.208Z,1002.48
2023-03-28T10:51:50.191Z,1002.45
2023-03-28T10:52:50.355Z,1002.47
2023-03-28T10:53:50.205Z,1002.46
2023-03-28T10:54:50.203Z,1002.41
2023-03-28T10:55:51.139Z,1002.44
2023-03-28T10:56:50.218Z,1002.49
2023-03-28T10:57:50.127Z,1002.48
2023-03-28T10:58:50.134Z,1002.42
2023-03-28T10:59:50.102Z,1002.45
2023-03-28T11:00:50.093Z,1002.40
2023-03-28T11:01:51.120Z,1002.47
2023-03-28T11:02:50.170Z,1002.39
2023-03-28T11:03:50.158Z,1002.40
2023-03-28T11:04:50.602Z,1002.35
2023-03-28T11:06:05.743Z,1002.35
2023-03-28T11:06:52.058Z,1002.34
2023-03-28T11:07:50.062Z,1002.34
2023-03-28T11:08:50.057Z,1002.33
2023-03-28T11:09:50.031Z,1002.28
2023-03-28T11:10:50.037Z,1002.34
2023-03-28T11:11:50.005Z,1002.31
2023-03-28T11:12:55.076Z,1002.30
2023-03-28T11:13:52.010Z,1002.25
2023-03-28T11:14:50.008Z,1002.31
2023-03-28T11:15:50.073Z,1002.32
2023-03-28T11:16:49.994Z,1002.36
2023-03-28T11:17:50.055Z,1002.29
2023-03-28T11:18:49.989Z,1002.27
2023-03-28T11:19:49.977Z,1002.31
2023-03-28T11:20:49.946Z,1002.33
2023-03-28T11:21:49.970Z,1002.25
2023-03-28T11:23:02.756Z,1002.26
2023-03-28T11:23:51.899Z,1002.26
2023-03-28T11:24:49.931Z,1002.27
2023-03-28T11:25:49.902Z,1002.25
2023-03-28T11:26:49.916Z,1002.27
2023-03-28T11:27:50.992Z,1002.24
2023-03-28T11:28:49.923Z,1002.27
2023-03-28T11:29:49.867Z,1002.27
2023-03-28T11:30:49.855Z,1002.26
2023-03-28T11:31:49.947Z,1002.29
2023-03-28T11:32:49.908Z,1002.20
2023-03-28T11:33:49.836Z,1002.20
2023-03-28T11:34:49.915Z,1002.18
2023-03-28T11:35:49.863Z,1002.16
2023-03-28T11:36:49.904Z,1002.17
2023-03-28T11:37:49.825Z,1002.20
2023-03-28T11:38:50.509Z,1002.26
2023-03-28T11:39:49.787Z,1002.13
2023-03-28T11:40:49.793Z,1002.19
2023-03-28T11:41:49.805Z,1002.19
2023-03-28T11:42:49.806Z,1002.16
2023-03-28T11:43:49.773Z,1002.21
2023-03-28T11:44:49.752Z,1002.13
2023-03-28T11:45:51.962Z,1002.16
2023-03-28T11:46:50.767Z,1002.20
2023-03-28T11:47:49.747Z,1002.15
2023-03-28T11:48:49.738Z,1002.16
2023-03-28T11:49:49.696Z,1002.22
2023-03-28T11:50:49.743Z,1002.19
2023-03-28T11:51:49.701Z,1002.25
2023-03-28T11:52:49.691Z,1002.22
2023-03-28T11:53:49.670Z,1002.26
2023-03-28T11:54:49.658Z,1002.13
2023-03-28T11:55:50.093Z,1002.26
2023-03-28T11:56:49.748Z,1002.18
2023-03-28T11:57:49.683Z,1002.18
2023-03-28T11:58:49.703Z,1002.20
2023-03-28T11:59:50.587Z,1002.17
2023-03-28T12:00:49.778Z,1002.12
2023-03-28T12:01:49.633Z,1002.20
2023-03-28T12:02:49.728Z,1002.10
2023-03-28T12:03:49.721Z,1002.13
2023-03-28T12:04:49.594Z,1002.08
2023-03-28T12:05:49.587Z,1002.07
2023-03-28T12:07:01.906Z,1002.06
2023-03-28T12:07:51.557Z,1002.10
2023-03-28T12:08:49.642Z,1002.03
2023-03-28T12:09:50.463Z,1002.05
2023-03-28T12:10:49.581Z,1002.02
2023-03-28T12:11:49.569Z,1001.97
2023-03-28T12:12:49.531Z,1002.02
2023-03-28T12:13:55.468Z,1002.00
2023-03-28T12:14:51.529Z,1001.98